Time;durP1;ratioP1;P1;durP2;ratioP2;P2;SDS_P1;SDS_P2;PMS_P1;PMS_P2;Temp;Humidity;BMP_temperature;BMP_pressure;BME280_temperature;BME280_humidity;BME280_pressure;Samples;Min_cycle;Max_cycle;Signal;HPM_P1;HPM_P2
2021/01/05 00:00:49;;;;;;;13.45;9.05;;;2.10;99.90;;;;;;4984060;28;20034;-62
2021/01/05 00:03:15;;;;;;;15.05;9.43;;;2.10;99.90;;;;;;4985944;28;20054;-59
2021/01/05 00:05:40;;;;;;;14.02;9.45;;;2.20;99.90;;;;;;4988044;28;20649;-61
2021/01/05 00:08:06;;;;;;;16.17;9.48;;;2.10;99.90;;;;;;4986149;28;20041;-58
2021/01/05 00:10:32;;;;;;;14.18;9.05;;;2.10;99.90;;;;;;4972801;28;20049;-60
2021/01/05 00:12:57;;;;;;;15.52;9.68;;;2.10;99.90;;;;;;4985709;28;20027;-59
2021/01/05 00:15:23;;;;;;;15.07;9.40;;;2.10;99.90;;;;;;4987085;28;20400;-62
2021/01/05 00:17:49;;;;;;;16.70;10.35;;;2.10;99.90;;;;;;4984169;28;20404;-62
2021/01/05 00:20:19;;;;;;;14.90;9.77;;;2.10;99.90;;;;;;4982065;28;20039;-60
2021/01/05 00:22:44;;;;;;;15.18;10.20;;;2.20;99.90;;;;;;4985541;28;20092;-59
2021/01/05 00:25:13;;;;;;;14.07;9.57;;;2.20;99.90;;;;;;4985779;28;20463;-58
2021/01/05 00:27:39;;;;;;;13.90;9.15;;;2.10;99.90;;;;;;4986498;28;20035;-57
2021/01/05 00:30:12;;;;;;;17.42;10.70;;;2.20;99.90;;;;;;4980286;28;20058;-58
2021/01/05 00:32:41;;;;;;;15.15;9.95;;;2.20;99.90;;;;;;4982418;28;20033;-60
2021/01/05 00:35:08;;;;;;;12.70;9.25;;;2.10;99.90;;;;;;4982694;28;20022;-58
2021/01/05 00:37:34;;;;;;;14.27;8.88;;;2.10;99.90;;;;;;4985980;28;20137;-60
2021/01/05 00:39:59;;;;;;;14.98;9.60;;;2.10;99.90;;;;;;4986027;28;20289;-61
2021/01/05 00:42:25;;;;;;;15.73;9.93;;;2.10;99.90;;;;;;4986808;28;20018;-59
2021/01/05 00:44:50;;;;;;;13.93;9.68;;;2.10;99.90;;;;;;4985986;28;20030;-61
2021/01/05 00:47:16;;;;;;;13.10;9.02;;;2.20;99.90;;;;;;4986516;28;20033;-60
2021/01/05 00:49:41;;;;;;;14.45;8.65;;;2.10;99.90;;;;;;4984667;28;20022;-61
2021/01/05 00:52:07;;;;;;;15.02;8.85;;;2.20;99.90;;;;;;4986022;28;20036;-60
2021/01/05 00:54:32;;;;;;;12.82;8.88;;;2.20;99.90;;;;;;4987209;28;20030;-60
2021/01/05 00:56:58;;;;;;;15.50;9.35;;;2.20;99.90;;;;;;4985504;28;20023;-59
2021/01/05 00:59:24;;;;;;;14.98;9.80;;;2.10;99.90;;;;;;4986065;28;20026;-58
2021/01/05 01:01:49;;;;;;;14.25;9.10;;;2.10;99.90;;;;;;4986723;28;20041;-62
2021/01/05 01:04:16;;;;;;;15.93;9.80;;;2.20;99.90;;;;;;4985183;28;20034;-62
2021/01/05 01:06:41;;;;;;;13.50;9.18;;;2.20;99.90;;;;;;4985481;28;20027;-61
2021/01/05 01:09:07;;;;;;;14.55;9.50;;;2.20;99.90;;;;;;4968368;28;20628;-62
2021/01/05 01:11:32;;;;;;;17.02;9.65;;;2.10;99.90;;;;;;4984069;28;20554;-59
2021/01/05 01:13:58;;;;;;;15.18;9.93;;;2.10;99.90;;;;;;4986502;28;20072;-60
2021/01/05 01:16:23;;;;;;;15.77;9.48;;;2.20;99.90;;;;;;4985739;28;20089;-59
2021/01/05 01:18:49;;;;;;;12.98;9.27;;;2.20;99.90;;;;;;4986206;28;20085;-57
2021/01/05 01:21:15;;;;;;;15.38;9.98;;;2.20;99.90;;;;;;4986410;28;20022;-59
2021/01/05 01:23:44;;;;;;;15.55;9.75;;;2.10;99.90;;;;;;4984631;28;20061;-59
2021/01/05 01:26:10;;;;;;;17.67;10.02;;;2.10;99.90;;;;;;4985135;28;20031;-60
2021/01/05 01:28:37;;;;;;;15.95;10.40;;;2.10;99.90;;;;;;4986349;28;20551;-59
2021/01/05 01:31:03;;;;;;;16.00;10.38;;;2.10;99.90;;;;;;4986055;28;20858;-61
2021/01/05 01:33:28;;;;;;;17.45;11.05;;;2.10;99.90;;;;;;4980305;28;20037;-65
2021/01/05 01:35:54;;;;;;;16.63;10.68;;;2.10;99.90;;;;;;4976671;28;20029;-58
2021/01/05 01:38:19;;;;;;;16.30;9.68;;;2.10;99.90;;;;;;4986351;28;20054;-60
2021/01/05 01:40:45;;;;;;;16.50;10.60;;;2.10;99.90;;;;;;4985226;28;20559;-58
2021/01/05 01:43:11;;;;;;;13.82;9.27;;;2.20;99.90;;;;;;4985524;28;20567;-58
2021/01/05 01:45:36;;;;;;;13.75;9.60;;;2.10;99.90;;;;;;4983348;28;20503;-58
2021/01/05 01:48:03;;;;;;;14.32;9.80;;;2.10;99.90;;;;;;4983460;28;20030;-57
2021/01/05 01:50:32;;;;;;;16.00;10.07;;;2.20;99.90;;;;;;4985622;28;20018;-59
2021/01/05 01:53:24;;;;;;;16.20;9.82;;;2.10;99.90;;;;;;4985108;28;20040;-59
2021/01/05 01:56:17;;;;;;;17.20;10.93;;;2.10;99.90;;;;;;4981699;28;20026;-61
2021/01/05 01:59:07;;;;;;;14.98;9.88;;;2.10;99.90;;;;;;4985751;28;20495;-59
2021/01/05 02:01:44;;;;;;;19.27;11.75;;;2.20;99.90;;;;;;4980663;28;20039;-59
2021/01/05 02:04:46;;;;;;;15.60;10.15;;;2.20;99.90;;;;;;4985595;28;20022;-58
2021/01/05 02:07:47;;;;;;;18.50;10.98;;;2.10;99.90;;;;;;4981022;28;20030;-57
2021/01/05 02:10:35;;;;;;;16.48;9.75;;;2.10;99.90;;;;;;4968528;28;20133;-59
2021/01/05 02:13:33;;;;;;;15.27;9.80;;;2.10;99.90;;;;;;4985800;28;20420;-59
2021/01/05 02:16:15;;;;;;;15.40;10.18;;;2.10;99.90;;;;;;4978312;28;20034;-61
2021/01/05 02:19:34;;;;;;;17.45;9.82;;;2.10;99.90;;;;;;4981919;28;20029;-60
2021/01/05 02:22:29;;;;;;;17.52;10.35;;;2.10;99.90;;;;;;4972697;28;20117;-60
2021/01/05 02:25:09;;;;;;;16.92;10.70;;;2.10;99.90;;;;;;4987158;28;20065;-58
2021/01/05 02:27:41;;;;;;;14.88;10.07;;;2.10;99.90;;;;;;4984086;28;20026;-58
2021/01/05 02:30:10;;;;;;;14.63;10.18;;;2.10;99.90;;;;;;4988536;28;20026;-59
2021/01/05 02:32:42;;;;;;;17.35;10.57;;;2.10;99.90;;;;;;4983913;28;20034;-59
2021/01/05 02:35:10;;;;;;;16.50;10.38;;;2.10;99.90;;;;;;4985817;28;20029;-64
2021/01/05 02:38:19;;;;;;;16.70;10.32;;;2.20;99.90;;;;;;4982562;28;20029;-57
2021/01/05 02:40:50;;;;;;;16.23;9.85;;;2.20;99.90;;;;;;4984131;28;20034;-60
2021/01/05 02:43:45;;;;;;;18.92;10.60;;;2.10;99.90;;;;;;4988209;28;20089;-60
2021/01/05 02:46:37;;;;;;;18.65;10.90;;;2.20;99.90;;;;;;4987731;28;20029;-60
2021/01/05 02:49:21;;;;;;;18.85;10.32;;;2.10;99.90;;;;;;4988550;28;20038;-59
2021/01/05 02:52:01;;;;;;;16.25;10.43;;;2.10;99.90;;;;;;4988408;28;20034;-63
2021/01/05 02:54:42;;;;;;;14.10;9.52;;;2.10;99.90;;;;;;4986447;28;20068;-56
2021/01/05 02:58:03;;;;;;;16.92;10.27;;;2.10;99.90;;;;;;4985028;28;20134;-59
2021/01/05 03:00:28;;;;;;;17.33;10.40;;;2.10;99.90;;;;;;4980872;28;20050;-61
2021/01/05 03:03:27;;;;;;;16.83;10.70;;;2.00;99.90;;;;;;4988720;28;20387;-59
2021/01/05 03:06:18;;;;;;;16.85;10.35;;;2.10;99.90;;;;;;4946936;28;20484;-63
2021/01/05 03:08:56;;;;;;;16.48;10.32;;;2.10;99.90;;;;;;4987820;28;20556;-60
2021/01/05 03:11:32;;;;;;;17.73;10.63;;;2.10;99.90;;;;;;4973551;28;20047;-59
2021/01/05 03:14:14;;;;;;;15.82;10.02;;;2.10;99.90;;;;;;4987909;28;20440;-61
2021/01/05 03:16:48;;;;;;;16.90;10.27;;;2.10;99.90;;;;;;4986144;28;20021;-62
2021/01/05 03:19:26;;;;;;;15.82;9.93;;;2.10;99.90;;;;;;4985977;28;20033;-59
2021/01/05 03:21:56;;;;;;;15.52;10.98;;;2.10;99.90;;;;;;4988384;28;20056;-54
2021/01/05 03:24:24;;;;;;;17.58;10.35;;;2.10;99.90;;;;;;4987330;28;20149;-60
2021/01/05 03:26:51;;;;;;;16.13;10.48;;;2.10;99.90;;;;;;4988268;28;20543;-60
2021/01/05 03:29:18;;;;;;;16.92;10.27;;;2.10;99.90;;;;;;4987965;28;20015;-59
2021/01/05 03:31:49;;;;;;;21.65;12.15;;;2.10;99.90;;;;;;4985146;28;20608;-60
2021/01/05 03:34:15;;;;;;;17.65;10.65;;;2.10;99.90;;;;;;4985223;28;20045;-62
2021/01/05 03:36:40;;;;;;;17.25;11.07;;;2.00;99.90;;;;;;4986085;28;20034;-63
2021/01/05 03:39:07;;;;;;;19.90;11.40;;;2.00;99.90;;;;;;4988414;28;20392;-61
2021/01/05 03:41:33;;;;;;;19.20;11.02;;;2.10;99.90;;;;;;4986031;28;20033;-60
2021/01/05 03:43:59;;;;;;;19.90;11.27;;;2.00;99.90;;;;;;4985897;28;20408;-61
2021/01/05 03:46:29;;;;;;;19.17;10.98;;;2.10;99.90;;;;;;4987409;28;20026;-59
2021/01/05 03:48:56;;;;;;;19.13;11.48;;;2.00;99.90;;;;;;4987870;28;20070;-60
2021/01/05 03:51:22;;;;;;;19.17;11.80;;;2.00;99.90;;;;;;4985990;28;20030;-57
2021/01/05 03:53:47;;;;;;;21.25;11.88;;;2.00;99.90;;;;;;4987709;28;20030;-61
2021/01/05 03:56:13;;;;;;;19.63;12.10;;;2.00;99.90;;;;;;4986885;28;20022;-62
2021/01/05 03:58:38;;;;;;;22.17;13.30;;;2.00;99.90;;;;;;4981188;28;20077;-62
2021/01/05 04:01:04;;;;;;;16.63;11.18;;;2.00;99.90;;;;;;4987551;28;20097;-62
2021/01/05 04:03:30;;;;;;;18.42;11.82;;;2.00;99.90;;;;;;4987233;28;20037;-61
2021/01/05 04:05:56;;;;;;;18.30;11.43;;;2.00;99.90;;;;;;4987355;28;20034;-61
2021/01/05 04:08:22;;;;;;;19.17;11.23;;;2.00;99.90;;;;;;4978875;28;20030;-57
2021/01/05 04:10:48;;;;;;;23.10;11.70;;;2.00;99.90;;;;;;4973519;28;20366;-60
2021/01/05 04:13:13;;;;;;;18.70;11.98;;;2.00;99.90;;;;;;4985988;28;20655;-63
2021/01/05 04:15:39;;;;;;;21.88;12.52;;;2.00;99.90;;;;;;4987705;28;20030;-62
2021/01/05 04:18:05;;;;;;;21.33;11.85;;;2.00;99.90;;;;;;4979401;28;20100;-62
2021/01/05 04:20:31;;;;;;;20.42;12.10;;;2.00;99.90;;;;;;4986457;28;20038;-61
2021/01/05 04:22:58;;;;;;;20.35;11.57;;;2.00;99.90;;;;;;5002448;28;20030;-60
2021/01/05 04:25:24;;;;;;;19.15;11.40;;;2.00;99.90;;;;;;4986074;28;20022;-61
2021/01/05 04:27:51;;;;;;;18.30;10.70;;;2.00;99.90;;;;;;4987782;28;20034;-57
2021/01/05 04:30:25;;;;;;;17.42;11.15;;;2.10;99.90;;;;;;4985948;28;20408;-63
2021/01/05 04:32:53;;;;;;;20.83;11.48;;;2.10;99.90;;;;;;4985368;28;20531;-58
2021/01/05 04:35:20;;;;;;;23.52;12.70;;;2.10;99.90;;;;;;4985587;28;20092;-59
2021/01/05 04:37:46;;;;;;;21.63;12.35;;;2.10;99.90;;;;;;4986169;28;20056;-60
2021/01/05 04:40:39;;;;;;;17.88;11.23;;;2.00;99.90;;;;;;4985400;28;20037;-59
2021/01/05 04:43:29;;;;;;;21.83;11.82;;;2.00;99.90;;;;;;4983434;28;20096;-63
2021/01/05 04:46:15;;;;;;;23.40;13.02;;;2.00;99.90;;;;;;4977495;28;20034;-61
2021/01/05 04:48:56;;;;;;;22.13;12.45;;;2.10;99.90;;;;;;4985872;28;20034;-61
2021/01/05 04:51:51;;;;;;;20.27;11.80;;;2.10;99.90;;;;;;4985100;28;20038;-59
2021/01/05 04:54:22;;;;;;;;;;;2.10;99.90;;;;;;4992115;28;20027;-63
2021/01/05 04:57:10;;;;;;;21.40;11.05;;;2.10;99.90;;;;;;4985758;28;19916;-62
2021/01/05 04:59:43;;;;;;;18.83;11.25;;;2.10;99.90;;;;;;4980697;28;20401;-61
2021/01/05 05:02:30;;;;;;;18.70;11.43;;;2.10;99.90;;;;;;4985699;28;20362;-60
2021/01/05 05:05:23;;;;;;;21.05;11.65;;;2.10;99.90;;;;;;4979746;28;20026;-60
2021/01/05 05:08:13;;;;;;;21.17;12.68;;;2.10;99.90;;;;;;4985504;28;20026;-59
2021/01/05 05:10:53;;;;;;;18.48;11.20;;;2.10;99.90;;;;;;4969583;28;20280;-61
2021/01/05 05:14:00;;;;;;;20.90;11.93;;;2.10;99.90;;;;;;4982637;28;20564;-61
2021/01/05 05:16:28;;;;;;;20.08;11.40;;;2.00;99.90;;;;;;4977743;28;20027;-64
2021/01/05 05:19:19;;;;;;;18.58;11.00;;;2.00;99.90;;;;;;4985647;28;20523;-62
2021/01/05 05:22:07;;;;;;;21.70;12.32;;;2.10;99.90;;;;;;4984923;28;21123;-62
2021/01/05 05:24:48;;;;;;;20.77;11.02;;;2.00;99.90;;;;;;4979928;28;20037;-60
2021/01/05 05:28:01;;;;;;;19.45;11.63;;;2.10;99.90;;;;;;4985914;28;20080;-63
2021/01/05 05:30:36;;;;;;;20.35;11.13;;;2.00;99.90;;;;;;4980979;28;20044;-63
2021/01/05 05:33:13;;;;;;;19.83;11.60;;;2.10;99.90;;;;;;4982887;28;20109;-64
2021/01/05 05:35:42;;;;;;;20.83;11.70;;;2.10;99.90;;;;;;4985161;28;20030;-64
2021/01/05 05:38:30;;;;;;;21.95;12.10;;;2.10;99.90;;;;;;4982928;28;20030;-63
2021/01/05 05:41:04;;;;;;;21.60;11.75;;;2.10;99.90;;;;;;4985269;28;20050;-61
2021/01/05 05:43:39;;;;;;;;;;;2.10;99.90;;;;;;4984475;28;20488;-64
2021/01/05 05:46:15;;;;;;;22.52;11.68;;;2.10;99.90;;;;;;5000825;28;19920;-62
2021/01/05 05:49:00;;;;;;;21.77;11.82;;;2.10;99.90;;;;;;4983128;28;20117;-61
2021/01/05 05:51:34;;;;;;;18.95;10.82;;;2.10;99.90;;;;;;4984796;28;20022;-63
2021/01/05 05:54:13;;;;;;;21.10;12.32;;;2.10;99.90;;;;;;4984706;28;20104;-61
2021/01/05 05:56:51;;;;;;;21.52;11.80;;;2.10;99.90;;;;;;4983182;28;20464;-63
2021/01/05 05:59:20;;;;;;;22.60;12.00;;;2.20;99.90;;;;;;4983802;28;20019;-63
2021/01/05 06:01:46;;;;;;;22.13;12.38;;;2.20;99.90;;;;;;4984521;28;20061;-63
2021/01/05 06:04:13;;;;;;;20.65;11.45;;;2.10;99.90;;;;;;4990016;28;20444;-63
2021/01/05 06:06:41;;;;;;;21.98;13.00;;;2.10;99.90;;;;;;4985914;28;21473;-62
2021/01/05 06:09:08;;;;;;;23.80;12.02;;;2.10;99.90;;;;;;4981006;28;20055;-63
2021/01/05 06:11:33;;;;;;;22.13;12.38;;;2.10;99.90;;;;;;4974775;28;20046;-62
2021/01/05 06:14:03;;;;;;;24.50;12.30;;;2.10;99.90;;;;;;5003806;28;20758;-61
2021/01/05 06:16:33;;;;;;;20.92;12.02;;;2.10;99.90;;;;;;5004334;28;20026;-62
2021/01/05 06:18:59;;;;;;;22.02;12.15;;;2.10;99.90;;;;;;4988199;28;20035;-59
2021/01/05 06:21:25;;;;;;;23.52;12.77;;;2.10;99.90;;;;;;4989173;28;20041;-60
2021/01/05 06:23:50;;;;;;;22.38;12.00;;;2.10;99.90;;;;;;4987760;28;20037;-62
2021/01/05 06:26:19;;;;;;;24.50;13.43;;;2.10;99.90;;;;;;4986772;28;20073;-60
2021/01/05 06:28:47;;;;;;;21.52;11.80;;;2.00;99.90;;;;;;4985756;28;20225;-63
2021/01/05 06:31:13;;;;;;;22.00;12.20;;;2.00;99.90;;;;;;4989692;28;20058;-64
2021/01/05 06:33:38;;;;;;;20.23;12.07;;;2.00;99.90;;;;;;4988252;28;20050;-62
2021/01/05 06:36:04;;;;;;;22.02;12.27;;;2.00;99.90;;;;;;4988914;28;20511;-59
2021/01/05 06:38:30;;;;;;;23.50;13.52;;;2.00;99.90;;;;;;4985590;28;20121;-59
2021/01/05 06:40:56;;;;;;;22.33;12.48;;;1.90;99.90;;;;;;4987680;28;20484;-61
2021/01/05 06:43:21;;;;;;;23.25;12.38;;;1.90;99.90;;;;;;5002332;28;20030;-63
2021/01/05 06:45:47;;;;;;;25.77;12.93;;;1.80;99.90;;;;;;4989440;28;20018;-61
2021/01/05 06:48:12;;;;;;;22.58;12.80;;;1.70;99.90;;;;;;4981343;28;20026;-60
2021/01/05 06:50:38;;;;;;;22.85;12.05;;;1.70;99.90;;;;;;4989395;28;20045;-62
2021/01/05 06:53:03;;;;;;;23.20;13.55;;;1.70;99.90;;;;;;4982277;28;20025;-62
2021/01/05 06:55:30;;;;;;;25.10;12.88;;;1.70;99.90;;;;;;4986944;28;20795;-62
2021/01/05 06:57:56;;;;;;;24.77;12.93;;;1.60;99.90;;;;;;4987508;28;20502;-59
2021/01/05 07:00:25;;;;;;;24.33;13.63;;;1.60;99.90;;;;;;4986137;28;20054;-62
2021/01/05 07:02:52;;;;;;;25.73;13.27;;;1.60;99.90;;;;;;4988633;28;20030;-62
2021/01/05 07:05:18;;;;;;;22.48;12.98;;;1.60;99.90;;;;;;4984715;28;20058;-58
2021/01/05 07:07:44;;;;;;;22.80;13.43;;;1.50;99.90;;;;;;4989325;28;20023;-61
2021/01/05 07:10:12;;;;;;;24.67;13.50;;;1.40;99.90;;;;;;4971514;28;20808;-59
2021/01/05 07:12:38;;;;;;;26.65;13.43;;;1.40;99.90;;;;;;4986814;28;20030;-63
2021/01/05 07:15:06;;;;;;;26.45;13.15;;;1.30;99.90;;;;;;4987848;28;20627;-63
2021/01/05 07:17:31;;;;;;;24.52;14.18;;;1.20;99.90;;;;;;4988955;28;20045;-62
2021/01/05 07:19:57;;;;;;;25.63;14.07;;;1.20;99.90;;;;;;4986937;28;20034;-56
2021/01/05 07:22:22;;;;;;;26.92;14.85;;;1.10;99.90;;;;;;4988978;28;20436;-62
2021/01/05 07:24:48;;;;;;;27.85;14.77;;;1.00;99.90;;;;;;4988109;28;20404;-63
2021/01/05 07:27:13;;;;;;;29.52;15.10;;;1.00;99.90;;;;;;4988003;28;20484;-61
2021/01/05 07:29:39;;;;;;;24.70;13.57;;;1.10;99.90;;;;;;4987807;28;20022;-61
2021/01/05 07:32:05;;;;;;;24.88;14.38;;;1.30;99.90;;;;;;4987345;28;20084;-60
2021/01/05 07:34:32;;;;;;;25.60;14.25;;;1.30;99.90;;;;;;4987605;28;20081;-63
2021/01/05 07:37:01;;;;;;;26.40;13.55;;;1.30;99.90;;;;;;4988443;28;20125;-61
2021/01/05 07:39:31;;;;;;;26.58;14.23;;;1.40;99.90;;;;;;4988355;28;20381;-63
2021/01/05 07:42:29;;;;;;;25.98;13.55;;;1.40;99.90;;;;;;4986522;28;20105;-59
2021/01/05 07:44:57;;;;;;;22.88;12.70;;;1.50;99.90;;;;;;4987004;28;20033;-62
2021/01/05 07:47:26;;;;;;;24.83;13.38;;;1.50;99.90;;;;;;4987297;28;20019;-62
2021/01/05 07:49:51;;;;;;;24.38;12.98;;;1.50;99.90;;;;;;4985961;28;20039;-61
2021/01/05 07:52:31;;;;;;;27.17;13.05;;;1.60;99.90;;;;;;4985816;28;20026;-59
2021/01/05 07:54:57;;;;;;;22.60;12.90;;;1.60;99.90;;;;;;4983906;28;20039;-63
2021/01/05 07:57:22;;;;;;;20.75;11.80;;;1.70;99.90;;;;;;4985221;28;20030;-60
2021/01/05 07:59:48;;;;;;;27.15;13.68;;;1.70;99.90;;;;;;4987664;28;20042;-63
2021/01/05 08:02:13;;;;;;;20.70;12.50;;;1.80;99.90;;;;;;4986084;28;20506;-63
2021/01/05 08:04:41;;;;;;;26.13;13.07;;;1.80;99.90;;;;;;4986159;28;20472;-62
2021/01/05 08:07:07;;;;;;;20.50;12.00;;;1.80;99.90;;;;;;4981975;28;20060;-63
2021/01/05 08:09:34;;;;;;;21.52;12.48;;;1.80;99.90;;;;;;4986978;28;20037;-60
2021/01/05 08:11:59;;;;;;;20.27;12.30;;;1.90;99.90;;;;;;4965068;28;20046;-61
2021/01/05 08:14:25;;;;;;;21.48;12.65;;;1.90;99.90;;;;;;4987445;28;20037;-62
2021/01/05 08:16:51;;;;;;;21.83;12.20;;;2.00;99.90;;;;;;4982233;28;20096;-62
2021/01/05 08:19:17;;;;;;;22.23;12.18;;;2.00;99.90;;;;;;4956404;28;20034;-64
2021/01/05 08:21:43;;;;;;;21.25;12.23;;;2.00;99.90;;;;;;4973966;28;20019;-63
2021/01/05 08:24:08;;;;;;;24.40;13.35;;;2.00;99.90;;;;;;4985860;28;20446;-63
2021/01/05 08:26:34;;;;;;;24.25;13.60;;;2.00;99.90;;;;;;4986869;28;20026;-60
2021/01/05 08:29:00;;;;;;;25.17;13.13;;;2.10;99.90;;;;;;4985986;28;20046;-59
2021/01/05 08:31:38;;;;;;;26.10;13.27;;;2.10;99.90;;;;;;4985709;28;20057;-63
2021/01/05 08:34:03;;;;;;;24.60;12.30;;;2.10;99.90;;;;;;4983347;28;20046;-62
2021/01/05 08:36:30;;;;;;;24.10;12.85;;;2.10;99.90;;;;;;4986095;28;20643;-64
2021/01/05 08:38:57;;;;;;;23.67;13.93;;;2.10;99.90;;;;;;4985812;28;20037;-57
2021/01/05 08:41:22;;;;;;;24.15;13.18;;;2.20;99.90;;;;;;4984201;28;20019;-62
2021/01/05 08:43:48;;;;;;;21.27;12.32;;;2.20;99.90;;;;;;4985078;28;20080;-63
2021/01/05 08:46:21;;;;;;;23.50;13.55;;;2.20;99.90;;;;;;4987649;28;20045;-61
2021/01/05 08:48:47;;;;;;;24.77;13.38;;;2.20;99.90;;;;;;4983523;28;20067;-59
2021/01/05 08:51:13;;;;;;;24.75;12.32;;;2.30;99.90;;;;;;4985943;28;20057;-63
2021/01/05 08:53:38;;;;;;;24.90;13.20;;;2.30;99.90;;;;;;4985606;28;20045;-62
2021/01/05 08:56:04;;;;;;;24.85;13.75;;;2.20;99.90;;;;;;4985154;28;20117;-62
2021/01/05 08:58:29;;;;;;;24.60;13.35;;;2.20;99.90;;;;;;4986496;28;20030;-61
2021/01/05 09:00:55;;;;;;;25.63;13.32;;;2.20;99.90;;;;;;4986653;28;20026;-63
2021/01/05 09:03:21;;;;;;;24.02;13.20;;;2.20;99.90;;;;;;4984292;28;20036;-64
2021/01/05 09:05:46;;;;;;;26.48;13.65;;;2.30;99.90;;;;;;4987115;28;20022;-59
2021/01/05 09:08:13;;;;;;;24.58;13.43;;;2.30;99.90;;;;;;4984925;28;20026;-62
2021/01/05 09:10:39;;;;;;;24.70;12.55;;;2.30;99.90;;;;;;4969374;28;20504;-61
2021/01/05 09:13:04;;;;;;;21.80;11.65;;;2.20;99.90;;;;;;4986652;28;20105;-64
2021/01/05 09:15:30;;;;;;;24.38;13.00;;;2.30;99.90;;;;;;4985358;28;20511;-60
2021/01/05 09:17:56;;;;;;;25.88;13.27;;;2.30;99.90;;;;;;5001347;28;20027;-62
2021/01/05 09:20:24;;;;;;;26.27;13.00;;;2.30;99.90;;;;;;4983038;28;20400;-61
2021/01/05 09:22:52;;;;;;;20.33;11.73;;;2.40;99.90;;;;;;4985878;28;20026;-62
2021/01/05 09:25:18;;;;;;;26.25;14.18;;;2.40;99.90;;;;;;5000435;28;20687;-64
2021/01/05 09:27:43;;;;;;;23.58;12.65;;;2.50;99.90;;;;;;4986552;28;20173;-63
2021/01/05 09:30:14;;;;;;;29.50;13.23;;;2.50;99.90;;;;;;4985843;28;20023;-63
2021/01/05 09:32:40;;;;;;;21.80;11.30;;;2.50;99.90;;;;;;4986481;28;20034;-62
2021/01/05 09:35:06;;;;;;;21.58;12.10;;;2.50;99.90;;;;;;4983057;28;20109;-62
2021/01/05 09:37:32;;;;;;;24.23;12.38;;;2.50;99.90;;;;;;4986934;28;20037;-61
2021/01/05 09:39:58;;;;;;;24.35;12.55;;;2.50;99.90;;;;;;4983607;28;20515;-61
2021/01/05 09:42:23;;;;;;;24.52;12.13;;;2.60;99.90;;;;;;4986331;28;20022;-60
2021/01/05 09:44:49;;;;;;;27.05;12.70;;;2.60;99.90;;;;;;4985365;28;20120;-60
2021/01/05 09:47:19;;;;;;;27.98;13.63;;;2.60;99.90;;;;;;4986384;28;20167;-60
2021/01/05 09:49:49;;;;;;;24.17;12.80;;;2.60;99.90;;;;;;4983812;28;20034;-63
2021/01/05 09:52:15;;;;;;;25.77;12.77;;;2.60;99.90;;;;;;4985608;28;20026;-59
2021/01/05 09:54:44;;;;;;;25.27;12.32;;;2.60;99.90;;;;;;4986291;28;20511;-62
2021/01/05 09:57:10;;;;;;;24.73;13.40;;;2.70;99.90;;;;;;4984933;28;20101;-56
2021/01/05 09:59:38;;;;;;;26.15;12.85;;;2.70;99.90;;;;;;4984490;28;20495;-59
2021/01/05 10:02:04;;;;;;;26.02;13.63;;;2.80;99.90;;;;;;4986545;28;20033;-61
2021/01/05 10:04:30;;;;;;;27.63;13.45;;;2.70;99.90;;;;;;4983758;28;20105;-60
2021/01/05 10:06:55;;;;;;;24.27;13.15;;;2.80;99.90;;;;;;4986651;28;20113;-62
2021/01/05 10:09:21;;;;;;;27.23;13.45;;;2.80;99.90;;;;;;4984103;28;20037;-58
2021/01/05 10:11:47;;;;;;;27.75;12.98;;;2.80;99.90;;;;;;4968000;28;20789;-61
2021/01/05 10:14:15;;;;;;;23.98;12.63;;;2.90;99.90;;;;;;4984556;28;20022;-63
2021/01/05 10:16:41;;;;;;;26.13;13.43;;;2.90;99.90;;;;;;4985751;28;20035;-64
2021/01/05 10:19:07;;;;;;;26.15;13.20;;;2.90;99.90;;;;;;4981530;28;20108;-60
2021/01/05 10:21:37;;;;;;;23.00;12.57;;;2.90;99.90;;;;;;4986036;28;20030;-62
2021/01/05 10:24:05;;;;;;;26.88;13.85;;;3.00;99.90;;;;;;4980758;28;20031;-61
2021/01/05 10:26:30;;;;;;;25.45;13.82;;;3.00;99.90;;;;;;4983973;28;20396;-60
2021/01/05 10:28:57;;;;;;;24.85;12.35;;;3.00;99.90;;;;;;4980157;28;20088;-59
2021/01/05 10:31:23;;;;;;;28.70;13.00;;;3.00;99.90;;;;;;4986725;28;20080;-58
2021/01/05 10:33:49;;;;;;;22.40;12.48;;;3.10;99.90;;;;;;4982739;28;20410;-61
2021/01/05 10:36:19;;;;;;;27.33;14.73;;;3.10;99.90;;;;;;4985631;28;20026;-59
2021/01/05 10:38:47;;;;;;;32.38;15.13;;;3.10;99.90;;;;;;4980980;28;20045;-61
2021/01/05 10:41:15;;;;;;;29.88;14.90;;;3.10;99.90;;;;;;4985446;28;20033;-64
2021/01/05 10:43:40;;;;;;;27.45;13.63;;;3.20;99.90;;;;;;4984758;28;20022;-64
2021/01/05 10:46:06;;;;;;;24.73;13.73;;;3.10;99.90;;;;;;4989558;28;20081;-62
2021/01/05 10:48:31;;;;;;;29.25;13.07;;;3.20;99.90;;;;;;4985986;28;20026;-63
2021/01/05 10:50:57;;;;;;;31.98;15.48;;;3.20;99.90;;;;;;4987765;28;20672;-63
2021/01/05 10:53:24;;;;;;;32.28;16.05;;;3.30;99.90;;;;;;4986877;28;20049;-63
2021/01/05 10:55:49;;;;;;;28.63;13.88;;;3.40;99.90;;;;;;4988762;28;20149;-62
2021/01/05 10:58:15;;;;;;;27.52;13.82;;;3.50;99.90;;;;;;4987472;28;20544;-64
2021/01/05 11:00:40;;;;;;;24.70;13.25;;;3.50;99.90;;;;;;4987093;28;20058;-63
2021/01/05 11:03:06;;;;;;;27.92;13.95;;;3.50;99.90;;;;;;4984499;28;20054;-63
2021/01/05 11:05:32;;;;;;;24.13;12.35;;;3.60;99.90;;;;;;4987611;28;20022;-62
2021/01/05 11:07:57;;;;;;;26.02;13.57;;;3.60;99.90;;;;;;4988178;28;20041;-60
2021/01/05 11:10:23;;;;;;;28.42;14.52;;;3.70;99.90;;;;;;4988664;28;20029;-61
2021/01/05 11:12:48;;;;;;;23.77;11.85;;;3.80;99.90;;;;;;4973285;28;20054;-65
2021/01/05 11:15:16;;;;;;;25.63;13.30;;;4.00;99.90;;;;;;4988128;28;20026;-65
2021/01/05 11:17:45;;;;;;;22.73;13.02;;;4.00;99.90;;;;;;4987276;28;20034;-64
2021/01/05 11:20:15;;;;;;;20.58;12.30;;;4.00;99.90;;;;;;4985784;28;20027;-59
2021/01/05 11:22:41;;;;;;;19.33;10.80;;;4.00;99.90;;;;;;4987579;28;20022;-63
2021/01/05 11:25:08;;;;;;;20.40;11.43;;;4.00;99.90;;;;;;4987876;28;20038;-63
2021/01/05 11:27:33;;;;;;;24.33;11.65;;;4.00;99.90;;;;;;4988807;28;20041;-62
2021/01/05 11:29:59;;;;;;;21.17;11.20;;;3.90;99.90;;;;;;4987241;28;20508;-61
2021/01/05 11:32:24;;;;;;;21.80;11.80;;;3.90;99.90;;;;;;4984135;28;20484;-62
2021/01/05 11:34:50;;;;;;;21.30;11.63;;;3.90;99.90;;;;;;4987934;28;20031;-61
2021/01/05 11:37:21;;;;;;;23.70;12.40;;;3.90;99.90;;;;;;4988508;28;20030;-61
2021/01/05 11:39:48;;;;;;;22.48;11.95;;;3.90;99.90;;;;;;4987117;28;20031;-63
2021/01/05 11:42:16;;;;;;;22.13;12.43;;;4.00;99.90;;;;;;4985876;28;20103;-63
2021/01/05 11:44:44;;;;;;;23.45;12.15;;;3.90;99.90;;;;;;4987295;28;20062;-61
2021/01/05 11:47:10;;;;;;;23.20;13.27;;;4.00;99.90;;;;;;4987655;28;20084;-63
2021/01/05 11:49:36;;;;;;;23.38;11.68;;;4.10;99.90;;;;;;4988329;28;20030;-63
2021/01/05 11:52:01;;;;;;;21.02;11.13;;;4.10;99.90;;;;;;4985531;28;20029;-59
2021/01/05 11:54:27;;;;;;;20.95;10.85;;;4.00;99.90;;;;;;4982602;28;20038;-62
2021/01/05 11:56:57;;;;;;;21.23;11.18;;;4.00;99.90;;;;;;4985679;28;20029;-59
2021/01/05 11:59:23;;;;;;;21.60;12.27;;;4.00;99.90;;;;;;4985172;28;20023;-62
2021/01/05 12:01:49;;;;;;;21.33;12.45;;;4.00;99.90;;;;;;4987007;28;20019;-62
2021/01/05 12:04:14;;;;;;;24.50;12.85;;;3.90;99.90;;;;;;4988476;28;20030;-59
2021/01/05 12:06:40;;;;;;;20.67;11.05;;;3.80;99.90;;;;;;4986974;28;20286;-63
2021/01/05 12:09:08;;;;;;;20.27;11.65;;;3.80;99.90;;;;;;4985946;28;20033;-65
2021/01/05 12:11:35;;;;;;;24.73;13.43;;;3.70;99.90;;;;;;4972218;28;20058;-63
2021/01/05 12:14:04;;;;;;;26.52;12.43;;;3.60;99.90;;;;;;4983935;28;20036;-56
2021/01/05 12:16:33;;;;;;;28.38;13.88;;;3.60;99.90;;;;;;4984872;28;20604;-64
2021/01/05 12:19:01;;;;;;;21.70;12.57;;;3.50;99.90;;;;;;4981134;28;20027;-63
2021/01/05 12:21:30;;;;;;;23.17;12.45;;;3.50;99.90;;;;;;4982372;28;20030;-63
2021/01/05 12:23:56;;;;;;;24.70;13.60;;;3.50;99.90;;;;;;4985359;28;20065;-65
2021/01/05 12:26:23;;;;;;;21.30;11.98;;;3.50;99.90;;;;;;4987791;28;20050;-64
2021/01/05 12:28:49;;;;;;;23.15;11.93;;;3.50;99.90;;;;;;4986979;28;20034;-62
2021/01/05 12:31:14;;;;;;;21.75;12.30;;;3.50;99.90;;;;;;4984612;28;20117;-61
2021/01/05 12:33:40;;;;;;;22.33;11.73;;;3.50;99.90;;;;;;4984702;28;20038;-68
2021/01/05 12:36:06;;;;;;;24.90;12.48;;;3.50;99.90;;;;;;4983939;28;20074;-62
2021/01/05 12:38:31;;;;;;;26.20;13.07;;;3.50;99.90;;;;;;4985726;28;20026;-62
2021/01/05 12:40:57;;;;;;;23.85;13.15;;;3.50;99.90;;;;;;4987489;28;20037;-63
2021/01/05 12:43:22;;;;;;;17.75;10.15;;;3.60;99.90;;;;;;4984153;28;20030;-63
2021/01/05 12:45:48;;;;;;;22.08;12.40;;;3.70;99.90;;;;;;4986630;28;20027;-60
2021/01/05 12:48:13;;;;;;;21.63;11.75;;;3.70;99.90;;;;;;4980784;28;20400;-62
2021/01/05 12:50:39;;;;;;;22.85;11.57;;;3.70;99.90;;;;;;4987009;28;20037;-60
2021/01/05 12:53:04;;;;;;;22.65;12.05;;;3.70;99.90;;;;;;4984778;28;20026;-62